sensor_id;sensor_type;location;lat;lon;timestamp;pressure;altitude;pressure_sealevel;temperature;humidity
57250;BME280;43102;52.014;-0.680;2023-01-23T00:00:00;102692;;;-0.65;78.49
57250;BME280;43102;52.014;-0.680;2023-01-23T00:01:02;102687;;;-0.65;78.44
57250;BME280;43102;52.014;-0.680;2023-01-23T00:02:00;102687;;;-0.65;78.44
57250;BME280;43102;52.014;-0.680;2023-01-23T00:03:00;102687;;;-0.65;78.44
57250;BME280;43102;52.014;-0.680;2023-01-23T00:04:00;102687;;;-0.65;78.44
57250;BME280;43102;52.014;-0.680;2023-01-23T00:05:00;102687;;;-0.65;78.44
57250;BME280;43102;52.014;-0.680;2023-01-23T00:06:02;102693;;;-0.68;78.46
57250;BME280;43102;52.014;-0.680;2023-01-23T00:07:00;102693;;;-0.68;78.46
57250;BME280;43102;52.014;-0.680;2023-01-23T00:08:00;102693;;;-0.68;78.46
57250;BME280;43102;52.014;-0.680;2023-01-23T00:09:00;102693;;;-0.68;78.46
57250;BME280;43102;52.014;-0.680;2023-01-23T00:10:00;102693;;;-0.68;78.46
57250;BME280;43102;52.014;-0.680;2023-01-23T00:11:03;102693;;;-0.69;78.47
57250;BME280;43102;52.014;-0.680;2023-01-23T00:12:00;102693;;;-0.69;78.47
57250;BME280;43102;52.014;-0.680;2023-01-23T00:13:00;102693;;;-0.69;78.47
57250;BME280;43102;52.014;-0.680;2023-01-23T00:14:01;102693;;;-0.69;78.47
57250;BME280;43102;52.014;-0.680;2023-01-23T00:15:00;102693;;;-0.69;78.47
57250;BME280;43102;52.014;-0.680;2023-01-23T00:16:08;102693;;;-0.77;78.27
57250;BME280;43102;52.014;-0.680;2023-01-23T00:17:00;102693;;;-0.77;78.27
57250;BME280;43102;52.014;-0.680;2023-01-23T00:18:00;102693;;;-0.77;78.27
57250;BME280;43102;52.014;-0.680;2023-01-23T00:19:00;102693;;;-0.77;78.27
57250;BME280;43102;52.014;-0.680;2023-01-23T00:20:00;102693;;;-0.77;78.27
57250;BME280;43102;52.014;-0.680;2023-01-23T00:21:04;102691;;;-0.81;78.47
57250;BME280;43102;52.014;-0.680;2023-01-23T00:22:00;102691;;;-0.81;78.47
57250;BME280;43102;52.014;-0.680;2023-01-23T00:23:00;102691;;;-0.81;78.47
57250;BME280;43102;52.014;-0.680;2023-01-23T00:24:00;102691;;;-0.81;78.47
57250;BME280;43102;52.014;-0.680;2023-01-23T00:25:00;102691;;;-0.81;78.47
57250;BME280;43102;52.014;-0.680;2023-01-23T00:26:01;102684;;;-0.81;78.43
57250;BME280;43102;52.014;-0.680;2023-01-23T00:27:00;102684;;;-0.81;78.43
57250;BME280;43102;52.014;-0.680;2023-01-23T00:28:00;102684;;;-0.81;78.43
57250;BME280;43102;52.014;-0.680;2023-01-23T00:29:00;102684;;;-0.81;78.43
57250;BME280;43102;52.014;-0.680;2023-01-23T00:30:00;102684;;;-0.81;78.43
57250;BME280;43102;52.014;-0.680;2023-01-23T00:31:02;102676;;;-0.82;78.41
57250;BME280;43102;52.014;-0.680;2023-01-23T00:32:00;102676;;;-0.82;78.41
57250;BME280;43102;52.014;-0.680;2023-01-23T00:33:00;102676;;;-0.82;78.41
57250;BME280;43102;52.014;-0.680;2023-01-23T00:34:01;102676;;;-0.82;78.41
57250;BME280;43102;52.014;-0.680;2023-01-23T00:35:00;102676;;;-0.82;78.41
57250;BME280;43102;52.014;-0.680;2023-01-23T00:36:00;102683;;;-0.87;78.35
57250;BME280;43102;52.014;-0.680;2023-01-23T00:37:00;102683;;;-0.87;78.35
57250;BME280;43102;52.014;-0.680;2023-01-23T00:38:00;102683;;;-0.87;78.35
57250;BME280;43102;52.014;-0.680;2023-01-23T00:39:00;102683;;;-0.87;78.35
57250;BME280;43102;52.014;-0.680;2023-01-23T00:40:00;102683;;;-0.87;78.35
57250;BME280;43102;52.014;-0.680;2023-01-23T00:41:00;102681;;;-0.95;78.36
57250;BME280;43102;52.014;-0.680;2023-01-23T00:42:00;102681;;;-0.95;78.36
57250;BME280;43102;52.014;-0.680;2023-01-23T00:43:00;102681;;;-0.95;78.36
57250;BME280;43102;52.014;-0.680;2023-01-23T00:44:00;102681;;;-0.95;78.36
57250;BME280;43102;52.014;-0.680;2023-01-23T00:45:00;102681;;;-0.95;78.36
57250;BME280;43102;52.014;-0.680;2023-01-23T00:46:00;102687;;;-1.03;78.31
57250;BME280;43102;52.014;-0.680;2023-01-23T00:47:00;102687;;;-1.03;78.31
57250;BME280;43102;52.014;-0.680;2023-01-23T00:48:00;102687;;;-1.03;78.31
57250;BME280;43102;52.014;-0.680;2023-01-23T00:49:00;102687;;;-1.03;78.31
57250;BME280;43102;52.014;-0.680;2023-01-23T00:50:00;102687;;;-1.03;78.31
57250;BME280;43102;52.014;-0.680;2023-01-23T00:51:00;102680;;;-1.01;78.29
57250;BME280;43102;52.014;-0.680;2023-01-23T00:52:00;102680;;;-1.01;78.29
57250;BME280;43102;52.014;-0.680;2023-01-23T00:53:00;102680;;;-1.01;78.29
57250;BME280;43102;52.014;-0.680;2023-01-23T00:54:00;102680;;;-1.01;78.29
57250;BME280;43102;52.014;-0.680;2023-01-23T00:55:00;102680;;;-1.01;78.29
57250;BME280;43102;52.014;-0.680;2023-01-23T00:56:00;102671;;;-0.97;78.27
57250;BME280;43102;52.014;-0.680;2023-01-23T00:57:00;102671;;;-0.97;78.27
57250;BME280;43102;52.014;-0.680;2023-01-23T00:58:00;102671;;;-0.97;78.27
57250;BME280;43102;52.014;-0.680;2023-01-23T00:59:00;102671;;;-0.97;78.27
57250;BME280;43102;52.014;-0.680;2023-01-23T01:00:00;102671;;;-0.97;78.27
57250;BME280;43102;52.014;-0.680;2023-01-23T01:01:00;102673;;;-1.00;78.26
57250;BME280;43102;52.014;-0.680;2023-01-23T01:02:00;102673;;;-1.00;78.26
57250;BME280;43102;52.014;-0.680;2023-01-23T01:03:00;102673;;;-1.00;78.26
57250;BME280;43102;52.014;-0.680;2023-01-23T01:04:00;102673;;;-1.00;78.26
57250;BME280;43102;52.014;-0.680;2023-01-23T01:05:00;102673;;;-1.00;78.26
57250;BME280;43102;52.014;-0.680;2023-01-23T01:06:00;102667;;;-1.07;78.14
57250;BME280;43102;52.014;-0.680;2023-01-23T01:07:00;102667;;;-1.07;78.14
57250;BME280;43102;52.014;-0.680;2023-01-23T01:08:00;102667;;;-1.07;78.14
57250;BME280;43102;52.014;-0.680;2023-01-23T01:09:00;102667;;;-1.07;78.14
57250;BME280;43102;52.014;-0.680;2023-01-23T01:10:00;102667;;;-1.07;78.14
57250;BME280;43102;52.014;-0.680;2023-01-23T01:11:00;102663;;;-1.00;78.33
57250;BME280;43102;52.014;-0.680;2023-01-23T01:12:00;102663;;;-1.00;78.33
57250;BME280;43102;52.014;-0.680;2023-01-23T01:13:01;102663;;;-1.00;78.33
57250;BME280;43102;52.014;-0.680;2023-01-23T01:14:00;102663;;;-1.00;78.33
57250;BME280;43102;52.014;-0.680;2023-01-23T01:15:00;102663;;;-1.00;78.33
57250;BME280;43102;52.014;-0.680;2023-01-23T01:16:00;102671;;;-0.99;78.30
57250;BME280;43102;52.014;-0.680;2023-01-23T01:17:00;102671;;;-0.99;78.30
57250;BME280;43102;52.014;-0.680;2023-01-23T01:18:00;102671;;;-0.99;78.30
57250;BME280;43102;52.014;-0.680;2023-01-23T01:19:00;102671;;;-0.99;78.30
57250;BME280;43102;52.014;-0.680;2023-01-23T01:20:00;102671;;;-0.99;78.30
57250;BME280;43102;52.014;-0.680;2023-01-23T01:21:00;102673;;;-0.99;78.31
57250;BME280;43102;52.014;-0.680;2023-01-23T01:22:00;102673;;;-0.99;78.31
57250;BME280;43102;52.014;-0.680;2023-01-23T01:23:00;102673;;;-0.99;78.31
57250;BME280;43102;52.014;-0.680;2023-01-23T01:24:00;102673;;;-0.99;78.31
57250;BME280;43102;52.014;-0.680;2023-01-23T01:25:00;102673;;;-0.99;78.31
57250;BME280;43102;52.014;-0.680;2023-01-23T01:26:00;102668;;;-0.98;78.35
57250;BME280;43102;52.014;-0.680;2023-01-23T01:27:00;102668;;;-0.98;78.35
57250;BME280;43102;52.014;-0.680;2023-01-23T01:28:00;102668;;;-0.98;78.35
57250;BME280;43102;52.014;-0.680;2023-01-23T01:29:00;102668;;;-0.98;78.35
57250;BME280;43102;52.014;-0.680;2023-01-23T01:30:00;102668;;;-0.98;78.35
57250;BME280;43102;52.014;-0.680;2023-01-23T01:31:05;102669;;;-0.94;78.49
57250;BME280;43102;52.014;-0.680;2023-01-23T01:32:00;102669;;;-0.94;78.49
57250;BME280;43102;52.014;-0.680;2023-01-23T01:33:00;102669;;;-0.94;78.49
57250;BME280;43102;52.014;-0.680;2023-01-23T01:34:00;102669;;;-0.94;78.49
57250;BME280;43102;52.014;-0.680;2023-01-23T01:35:00;102669;;;-0.94;78.49
57250;BME280;43102;52.014;-0.680;2023-01-23T01:36:00;102684;;;-0.98;78.48
57250;BME280;43102;52.014;-0.680;2023-01-23T01:37:00;102684;;;-0.98;78.48
57250;BME280;43102;52.014;-0.680;2023-01-23T01:38:00;102684;;;-0.98;78.48
57250;BME280;43102;52.014;-0.680;2023-01-23T01:39:00;102684;;;-0.98;78.48
57250;BME280;43102;52.014;-0.680;2023-01-23T01:40:00;102684;;;-0.98;78.48
57250;BME280;43102;52.014;-0.680;2023-01-23T01:41:00;102695;;;-1.00;78.42
57250;BME280;43102;52.014;-0.680;2023-01-23T01:42:00;102695;;;-1.00;78.42
57250;BME280;43102;52.014;-0.680;2023-01-23T01:43:02;102695;;;-1.00;78.42
57250;BME280;43102;52.014;-0.680;2023-01-23T01:44:00;102695;;;-1.00;78.42
57250;BME280;43102;52.014;-0.680;2023-01-23T01:45:00;102695;;;-1.00;78.42
57250;BME280;43102;52.014;-0.680;2023-01-23T01:46:17;102702;;;-1.03;78.44
57250;BME280;43102;52.014;-0.680;2023-01-23T01:47:00;102702;;;-1.03;78.44
57250;BME280;43102;52.014;-0.680;2023-01-23T01:48:00;102702;;;-1.03;78.44
57250;BME280;43102;52.014;-0.680;2023-01-23T01:50:02;102702;;;-1.03;78.44
57250;BME280;43102;52.014;-0.680;2023-01-23T01:51:00;102702;;;-1.12;78.29
57250;BME280;43102;52.014;-0.680;2023-01-23T01:52:02;102702;;;-1.12;78.29
57250;BME280;43102;52.014;-0.680;2023-01-23T01:53:00;102702;;;-1.12;78.29
57250;BME280;43102;52.014;-0.680;2023-01-23T01:55:01;102702;;;-1.12;78.29
57250;BME280;43102;52.014;-0.680;2023-01-23T01:56:00;102714;;;-1.17;78.33
57250;BME280;43102;52.014;-0.680;2023-01-23T01:58:00;102714;;;-1.17;78.33
57250;BME280;43102;52.014;-0.680;2023-01-23T01:59:00;102714;;;-1.17;78.33
57250;BME280;43102;52.014;-0.680;2023-01-23T02:01:00;102726;;;-1.21;78.28
57250;BME280;43102;52.014;-0.680;2023-01-23T02:02:02;102726;;;-1.21;78.28
57250;BME280;43102;52.014;-0.680;2023-01-23T02:03:00;102726;;;-1.21;78.28
57250;BME280;43102;52.014;-0.680;2023-01-23T02:04:00;102726;;;-1.21;78.28
57250;BME280;43102;52.014;-0.680;2023-01-23T02:05:02;102726;;;-1.21;78.28
57250;BME280;43102;52.014;-0.680;2023-01-23T02:06:00;102717;;;-1.23;78.46
57250;BME280;43102;52.014;-0.680;2023-01-23T02:07:01;102717;;;-1.23;78.46
57250;BME280;43102;52.014;-0.680;2023-01-23T02:09:04;102717;;;-1.23;78.46
57250;BME280;43102;52.014;-0.680;2023-01-23T02:10:01;102717;;;-1.23;78.46
57250;BME280;43102;52.014;-0.680;2023-01-23T02:11:00;102721;;;-1.23;78.30
57250;BME280;43102;52.014;-0.680;2023-01-23T02:12:00;102721;;;-1.23;78.30
57250;BME280;43102;52.014;-0.680;2023-01-23T02:14:00;102721;;;-1.23;78.30
57250;BME280;43102;52.014;-0.680;2023-01-23T02:15:01;102721;;;-1.23;78.30
57250;BME280;43102;52.014;-0.680;2023-01-23T02:16:01;102720;;;-1.19;78.45
57250;BME280;43102;52.014;-0.680;2023-01-23T02:17:00;102720;;;-1.19;78.45
57250;BME280;43102;52.014;-0.680;2023-01-23T02:18:00;102720;;;-1.19;78.45
57250;BME280;43102;52.014;-0.680;2023-01-23T02:19:00;102720;;;-1.19;78.45
57250;BME280;43102;52.014;-0.680;2023-01-23T02:21:01;102725;;;-1.17;78.41
57250;BME280;43102;52.014;-0.680;2023-01-23T02:22:04;102725;;;-1.17;78.41
57250;BME280;43102;52.014;-0.680;2023-01-23T02:24:17;102725;;;-1.17;78.41
57250;BME280;43102;52.014;-0.680;2023-01-23T02:26:01;102730;;;-1.22;78.30
57250;BME280;43102;52.014;-0.680;2023-01-23T02:27:00;102730;;;-1.22;78.30
57250;BME280;43102;52.014;-0.680;2023-01-23T02:28:00;102730;;;-1.22;78.30
57250;BME280;43102;52.014;-0.680;2023-01-23T02:29:00;102730;;;-1.22;78.30
57250;BME280;43102;52.014;-0.680;2023-01-23T02:30:00;102730;;;-1.22;78.30
57250;BME280;43102;52.014;-0.680;2023-01-23T02:31:00;102737;;;-1.23;78.25
57250;BME280;43102;52.014;-0.680;2023-01-23T02:32:00;102737;;;-1.23;78.25
57250;BME280;43102;52.014;-0.680;2023-01-23T02:34:00;102737;;;-1.23;78.25
57250;BME280;43102;52.014;-0.680;2023-01-23T02:35:03;102737;;;-1.23;78.25
57250;BME280;43102;52.014;-0.680;2023-01-23T02:36:01;102738;;;-1.24;78.40
57250;BME280;43102;52.014;-0.680;2023-01-23T02:37:00;102738;;;-1.24;78.40
57250;BME280;43102;52.014;-0.680;2023-01-23T02:38:01;102738;;;-1.24;78.40
57250;BME280;43102;52.014;-0.680;2023-01-23T02:39:02;102738;;;-1.24;78.40
57250;BME280;43102;52.014;-0.680;2023-01-23T02:40:00;102738;;;-1.24;78.40
57250;BME280;43102;52.014;-0.680;2023-01-23T02:41:01;102735;;;-1.22;78.28
57250;BME280;43102;52.014;-0.680;2023-01-23T02:42:00;102735;;;-1.22;78.28
57250;BME280;43102;52.014;-0.680;2023-01-23T02:43:00;102735;;;-1.22;78.28
57250;BME280;43102;52.014;-0.680;2023-01-23T02:44:04;102735;;;-1.22;78.28
57250;BME280;43102;52.014;-0.680;2023-01-23T02:45:00;102735;;;-1.22;78.28
57250;BME280;43102;52.014;-0.680;2023-01-23T02:46:01;102737;;;-1.25;78.25
57250;BME280;43102;52.014;-0.680;2023-01-23T02:47:01;102737;;;-1.25;78.25
57250;BME280;43102;52.014;-0.680;2023-01-23T02:48:00;102737;;;-1.25;78.25
57250;BME280;43102;52.014;-0.680;2023-01-23T02:49:00;102737;;;-1.25;78.25
57250;BME280;43102;52.014;-0.680;2023-01-23T02:50:00;102737;;;-1.25;78.25
57250;BME280;43102;52.014;-0.680;2023-01-23T02:51:00;102738;;;-1.23;78.36
57250;BME280;43102;52.014;-0.680;2023-01-23T02:52:00;102738;;;-1.23;78.36
57250;BME280;43102;52.014;-0.680;2023-01-23T02:53:00;102738;;;-1.23;78.36
57250;BME280;43102;52.014;-0.680;2023-01-23T02:54:00;102738;;;-1.23;78.36
57250;BME280;43102;52.014;-0.680;2023-01-23T02:55:00;102738;;;-1.23;78.36
57250;BME280;43102;52.014;-0.680;2023-01-23T02:56:00;102739;;;-1.19;78.33
57250;BME280;43102;52.014;-0.680;2023-01-23T02:57:00;102739;;;-1.19;78.33
57250;BME280;43102;52.014;-0.680;2023-01-23T02:58:00;102739;;;-1.19;78.33
57250;BME280;43102;52.014;-0.680;2023-01-23T02:59:00;102739;;;-1.19;78.33
57250;BME280;43102;52.014;-0.680;2023-01-23T03:00:00;102739;;;-1.19;78.33
57250;BME280;43102;52.014;-0.680;2023-01-23T03:01:00;102741;;;-1.18;78.39
57250;BME280;43102;52.014;-0.680;2023-01-23T03:02:00;102741;;;-1.18;78.39
57250;BME280;43102;52.014;-0.680;2023-01-23T03:03:00;102741;;;-1.18;78.39
57250;BME280;43102;52.014;-0.680;2023-01-23T03:04:02;102741;;;-1.18;78.39
57250;BME280;43102;52.014;-0.680;2023-01-23T03:05:00;102741;;;-1.18;78.39
57250;BME280;43102;52.014;-0.680;2023-01-23T03:06:00;102736;;;-1.20;78.32
57250;BME280;43102;52.014;-0.680;2023-01-23T03:07:00;102736;;;-1.20;78.32
57250;BME280;43102;52.014;-0.680;2023-01-23T03:08:00;102736;;;-1.20;78.32
57250;BME280;43102;52.014;-0.680;2023-01-23T03:09:01;102736;;;-1.20;78.32
57250;BME280;43102;52.014;-0.680;2023-01-23T03:10:00;102736;;;-1.20;78.32
57250;BME280;43102;52.014;-0.680;2023-01-23T03:11:00;102736;;;-1.32;78.17
57250;BME280;43102;52.014;-0.680;2023-01-23T03:12:00;102736;;;-1.32;78.17
57250;BME280;43102;52.014;-0.680;2023-01-23T03:13:00;102736;;;-1.32;78.17
57250;BME280;43102;52.014;-0.680;2023-01-23T03:14:00;102736;;;-1.32;78.17
57250;BME280;43102;52.014;-0.680;2023-01-23T03:15:00;102736;;;-1.32;78.17
57250;BME280;43102;52.014;-0.680;2023-01-23T03:16:00;102734;;;-1.31;78.27
57250;BME280;43102;52.014;-0.680;2023-01-23T03:17:00;102734;;;-1.31;78.27
57250;BME280;43102;52.014;-0.680;2023-01-23T03:18:00;102734;;;-1.31;78.27
57250;BME280;43102;52.014;-0.680;2023-01-23T03:19:02;102734;;;-1.31;78.27
57250;BME280;43102;52.014;-0.680;2023-01-23T03:20:00;102734;;;-1.31;78.27
57250;BME280;43102;52.014;-0.680;2023-01-23T03:21:01;102740;;;-1.29;78.29
57250;BME280;43102;52.014;-0.680;2023-01-23T03:22:00;102740;;;-1.29;78.29
57250;BME280;43102;52.014;-0.680;2023-01-23T03:23:00;102740;;;-1.29;78.29
57250;BME280;43102;52.014;-0.680;2023-01-23T03:24:01;102740;;;-1.29;78.29
57250;BME280;43102;52.014;-0.680;2023-01-23T03:25:00;102740;;;-1.29;78.29
57250;BME280;43102;52.014;-0.680;2023-01-23T03:26:00;102745;;;-1.36;78.16
57250;BME280;43102;52.014;-0.680;2023-01-23T03:27:00;102745;;;-1.36;78.16
57250;BME280;43102;52.014;-0.680;2023-01-23T03:28:00;102745;;;-1.36;78.16
57250;BME280;43102;52.014;-0.680;2023-01-23T03:29:00;102745;;;-1.36;78.16
57250;BME280;43102;52.014;-0.680;2023-01-23T03:30:00;102745;;;-1.36;78.16
57250;BME280;43102;52.014;-0.680;2023-01-23T03:31:00;102750;;;-1.48;78.17
57250;BME280;43102;52.014;-0.680;2023-01-23T03:32:00;102750;;;-1.48;78.17
57250;BME280;43102;52.014;-0.680;2023-01-23T03:33:00;102750;;;-1.48;78.17
57250;BME280;43102;52.014;-0.680;2023-01-23T03:34:00;102750;;;-1.48;78.17
57250;BME280;43102;52.014;-0.680;2023-01-23T03:35:00;102750;;;-1.48;78.17
57250;BME280;43102;52.014;-0.680;2023-01-23T03:36:00;102738;;;-1.50;78.09
57250;BME280;43102;52.014;-0.680;2023-01-23T03:37:00;102738;;;-1.50;78.09
57250;BME280;43102;52.014;-0.680;2023-01-23T03:38:00;102738;;;-1.50;78.09
57250;BME280;43102;52.014;-0.680;2023-01-23T03:39:00;102738;;;-1.50;78.09
57250;BME280;43102;52.014;-0.680;2023-01-23T03:40:00;102738;;;-1.50;78.09
57250;BME280;43102;52.014;-0.680;2023-01-23T03:41:00;102740;;;-1.47;78.09
57250;BME280;43102;52.014;-0.680;2023-01-23T03:42:00;102740;;;-1.47;78.09
57250;BME280;43102;52.014;-0.680;2023-01-23T03:43:00;102740;;;-1.47;78.09
57250;BME280;43102;52.014;-0.680;2023-01-23T03:44:00;102740;;;-1.47;78.09
57250;BME280;43102;52.014;-0.680;2023-01-23T03:45:00;102740;;;-1.47;78.09
57250;BME280;43102;52.014;-0.680;2023-01-23T03:46:00;102736;;;-1.55;77.90
57250;BME280;43102;52.014;-0.680;2023-01-23T03:47:00;102736;;;-1.55;77.90
57250;BME280;43102;52.014;-0.680;2023-01-23T03:48:00;102736;;;-1.55;77.90
57250;BME280;43102;52.014;-0.680;2023-01-23T03:49:00;102736;;;-1.55;77.90
57250;BME280;43102;52.014;-0.680;2023-01-23T03:50:00;102736;;;-1.55;77.90
57250;BME280;43102;52.014;-0.680;2023-01-23T03:51:00;102743;;;-1.60;77.98
57250;BME280;43102;52.014;-0.680;2023-01-23T03:52:00;102743;;;-1.60;77.98
57250;BME280;43102;52.014;-0.680;2023-01-23T03:53:00;102743;;;-1.60;77.98
57250;BME280;43102;52.014;-0.680;2023-01-23T03:54:00;102743;;;-1.60;77.98
57250;BME280;43102;52.014;-0.680;2023-01-23T03:55:00;102743;;;-1.60;77.98
57250;BME280;43102;52.014;-0.680;2023-01-23T03:56:00;102745;;;-1.61;77.99
57250;BME280;43102;52.014;-0.680;2023-01-23T03:57:00;102745;;;-1.61;77.99
57250;BME280;43102;52.014;-0.680;2023-01-23T03:58:00;102745;;;-1.61;77.99
57250;BME280;43102;52.014;-0.680;2023-01-23T03:59:00;102745;;;-1.61;77.99
57250;BME280;43102;52.014;-0.680;2023-01-23T04:00:00;102745;;;-1.61;77.99
57250;BME280;43102;52.014;-0.680;2023-01-23T04:01:00;102743;;;-1.60;77.94
57250;BME280;43102;52.014;-0.680;2023-01-23T04:02:00;102743;;;-1.60;77.94
57250;BME280;43102;52.014;-0.680;2023-01-23T04:03:00;102743;;;-1.60;77.94
57250;BME280;43102;52.014;-0.680;2023-01-23T04:04:00;102743;;;-1.60;77.94
57250;BME280;43102;52.014;-0.680;2023-01-23T04:05:00;102743;;;-1.60;77.94
57250;BME280;43102;52.014;-0.680;2023-01-23T04:06:00;102743;;;-1.60;77.85
57250;BME280;43102;52.014;-0.680;2023-01-23T04:07:00;102743;;;-1.60;77.85
57250;BME280;43102;52.014;-0.680;2023-01-23T04:08:00;102743;;;-1.60;77.85
57250;BME280;43102;52.014;-0.680;2023-01-23T04:09:00;102743;;;-1.60;77.85
57250;BME280;43102;52.014;-0.680;2023-01-23T04:10:00;102743;;;-1.60;77.85
57250;BME280;43102;52.014;-0.680;2023-01-23T04:11:01;102732;;;-1.60;77.83
57250;BME280;43102;52.014;-0.680;2023-01-23T04:12:00;102732;;;-1.60;77.83
57250;BME280;43102;52.014;-0.680;2023-01-23T04:13:00;102732;;;-1.60;77.83
57250;BME280;43102;52.014;-0.680;2023-01-23T04:14:00;102732;;;-1.60;77.83
57250;BME280;43102;52.014;-0.680;2023-01-23T04:15:00;102732;;;-1.60;77.83
57250;BME280;43102;52.014;-0.680;2023-01-23T04:16:00;102731;;;-1.62;77.72
57250;BME280;43102;52.014;-0.680;2023-01-23T04:17:00;102731;;;-1.62;77.72
57250;BME280;43102;52.014;-0.680;2023-01-23T04:18:00;102731;;;-1.62;77.72
57250;BME280;43102;52.014;-0.680;2023-01-23T04:19:00;102731;;;-1.62;77.72
57250;BME280;43102;52.014;-0.680;2023-01-23T04:20:00;102731;;;-1.62;77.72
57250;BME280;43102;52.014;-0.680;2023-01-23T04:21:00;102728;;;-1.70;77.73
57250;BME280;43102;52.014;-0.680;2023-01-23T04:22:00;102728;;;-1.70;77.73
57250;BME280;43102;52.014;-0.680;2023-01-23T04:23:00;102728;;;-1.70;77.73
57250;BME280;43102;52.014;-0.680;2023-01-23T04:24:00;102728;;;-1.70;77.73
57250;BME280;43102;52.014;-0.680;2023-01-23T04:25:00;102728;;;-1.70;77.73
57250;BME280;43102;52.014;-0.680;2023-01-23T04:26:00;102735;;;-1.73;77.67
57250;BME280;43102;52.014;-0.680;2023-01-23T04:27:00;102735;;;-1.73;77.67
57250;BME280;43102;52.014;-0.680;2023-01-23T04:28:00;102735;;;-1.73;77.67
57250;BME280;43102;52.014;-0.680;2023-01-23T04:29:00;102735;;;-1.73;77.67
57250;BME280;43102;52.014;-0.680;2023-01-23T04:30:00;102735;;;-1.73;77.67
57250;BME280;43102;52.014;-0.680;2023-01-23T04:31:00;102727;;;-1.76;77.55
57250;BME280;43102;52.014;-0.680;2023-01-23T04:32:00;102727;;;-1.76;77.55
57250;BME280;43102;52.014;-0.680;2023-01-23T04:33:00;102727;;;-1.76;77.55
57250;BME280;43102;52.014;-0.680;2023-01-23T04:34:00;102727;;;-1.76;77.55
57250;BME280;43102;52.014;-0.680;2023-01-23T04:35:00;102727;;;-1.76;77.55
57250;BME280;43102;52.014;-0.680;2023-01-23T04:36:01;102730;;;-1.77;77.53
57250;BME280;43102;52.014;-0.680;2023-01-23T04:37:00;102730;;;-1.77;77.53
57250;BME280;43102;52.014;-0.680;2023-01-23T04:38:00;102730;;;-1.77;77.53
57250;BME280;43102;52.014;-0.680;2023-01-23T04:39:00;102730;;;-1.77;77.53
57250;BME280;43102;52.014;-0.680;2023-01-23T04:40:00;102730;;;-1.77;77.53
57250;BME280;43102;52.014;-0.680;2023-01-23T04:41:00;102741;;;-1.80;77.51
57250;BME280;43102;52.014;-0.680;2023-01-23T04:42:00;102741;;;-1.80;77.51
57250;BME280;43102;52.014;-0.680;2023-01-23T04:43:00;102741;;;-1.80;77.51
57250;BME280;43102;52.014;-0.680;2023-01-23T04:44:00;102741;;;-1.80;77.51
57250;BME280;43102;52.014;-0.680;2023-01-23T04:45:00;102741;;;-1.80;77.51
57250;BME280;43102;52.014;-0.680;2023-01-23T04:46:00;102732;;;-1.99;77.35
57250;BME280;43102;52.014;-0.680;2023-01-23T04:47:00;102732;;;-1.99;77.35
57250;BME280;43102;52.014;-0.680;2023-01-23T04:48:00;102732;;;-1.99;77.35
57250;BME280;43102;52.014;-0.680;2023-01-23T04:49:00;102732;;;-1.99;77.35
57250;BME280;43102;52.014;-0.680;2023-01-23T04:50:00;102732;;;-1.99;77.35
57250;BME280;43102;52.014;-0.680;2023-01-23T04:51:00;102720;;;-2.10;77.42
57250;BME280;43102;52.014;-0.680;2023-01-23T04:52:00;102720;;;-2.10;77.42
57250;BME280;43102;52.014;-0.680;2023-01-23T04:53:00;102720;;;-2.10;77.42
57250;BME280;43102;52.014;-0.680;2023-01-23T04:54:00;102720;;;-2.10;77.42
57250;BME280;43102;52.014;-0.680;2023-01-23T04:55:00;102720;;;-2.10;77.42
57250;BME280;43102;52.014;-0.680;2023-01-23T04:56:00;102720;;;-2.16;77.21
57250;BME280;43102;52.014;-0.680;2023-01-23T04:57:00;102720;;;-2.16;77.21
57250;BME280;43102;52.014;-0.680;2023-01-23T04:58:00;102720;;;-2.16;77.21
57250;BME280;43102;52.014;-0.680;2023-01-23T04:59:00;102720;;;-2.16;77.21
57250;BME280;43102;52.014;-0.680;2023-01-23T05:00:00;102720;;;-2.16;77.21
57250;BME280;43102;52.014;-0.680;2023-01-23T05:01:01;102718;;;-2.28;77.02
57250;BME280;43102;52.014;-0.680;2023-01-23T05:02:00;102718;;;-2.28;77.02
57250;BME280;43102;52.014;-0.680;2023-01-23T05:03:00;102718;;;-2.28;77.02
57250;BME280;43102;52.014;-0.680;2023-01-23T05:04:00;102718;;;-2.28;77.02
57250;BME280;43102;52.014;-0.680;2023-01-23T05:05:00;102718;;;-2.28;77.02
57250;BME280;43102;52.014;-0.680;2023-01-23T05:06:00;102725;;;-2.28;77.20
57250;BME280;43102;52.014;-0.680;2023-01-23T05:07:00;102725;;;-2.28;77.20
57250;BME280;43102;52.014;-0.680;2023-01-23T05:08:00;102725;;;-2.28;77.20
57250;BME280;43102;52.014;-0.680;2023-01-23T05:09:00;102725;;;-2.28;77.20
57250;BME280;43102;52.014;-0.680;2023-01-23T05:10:00;102725;;;-2.28;77.20
57250;BME280;43102;52.014;-0.680;2023-01-23T05:11:00;102725;;;-2.20;77.11
57250;BME280;43102;52.014;-0.680;2023-01-23T05:12:00;102725;;;-2.20;77.11
57250;BME280;43102;52.014;-0.680;2023-01-23T05:13:00;102725;;;-2.20;77.11
57250;BME280;43102;52.014;-0.680;2023-01-23T05:14:00;102725;;;-2.20;77.11
57250;BME280;43102;52.014;-0.680;2023-01-23T05:15:00;102725;;;-2.20;77.11
57250;BME280;43102;52.014;-0.680;2023-01-23T05:16:00;102732;;;-2.17;77.06
57250;BME280;43102;52.014;-0.680;2023-01-23T05:17:00;102732;;;-2.17;77.06
57250;BME280;43102;52.014;-0.680;2023-01-23T05:18:00;102732;;;-2.17;77.06
57250;BME280;43102;52.014;-0.680;2023-01-23T05:19:00;102732;;;-2.17;77.06
57250;BME280;43102;52.014;-0.680;2023-01-23T05:20:00;102732;;;-2.17;77.06
57250;BME280;43102;52.014;-0.680;2023-01-23T05:21:00;102743;;;-2.18;76.98
57250;BME280;43102;52.014;-0.680;2023-01-23T05:22:00;102743;;;-2.18;76.98
57250;BME280;43102;52.014;-0.680;2023-01-23T05:23:00;102743;;;-2.18;76.98
57250;BME280;43102;52.014;-0.680;2023-01-23T05:24:00;102743;;;-2.18;76.98
57250;BME280;43102;52.014;-0.680;2023-01-23T05:25:00;102743;;;-2.18;76.98
57250;BME280;43102;52.014;-0.680;2023-01-23T05:26:00;102751;;;-2.19;76.94
57250;BME280;43102;52.014;-0.680;2023-01-23T05:27:00;102751;;;-2.19;76.94
57250;BME280;43102;52.014;-0.680;2023-01-23T05:28:00;102751;;;-2.19;76.94
57250;BME280;43102;52.014;-0.680;2023-01-23T05:29:00;102751;;;-2.19;76.94
57250;BME280;43102;52.014;-0.680;2023-01-23T05:30:00;102751;;;-2.19;76.94
57250;BME280;43102;52.014;-0.680;2023-01-23T05:31:00;102751;;;-2.21;76.94